KRKS/RKS METAR and TAF weather

Enter ICAO airport designator
Station Type Date Time Source
KRKS METAR 2024/04/18 05:54 UTC NOAA

KRKS 180554Z AUTO 06018G24KT 10SM FEW017 OVC070 M03/M07 A3017 RMK AO2 PK WND 06026/0500 SLP226 T10281067 10100 21028 51021


Station Type Date Time Source
KRKS Decoded METAR 2024/04/18 05:54 UTC NOAA

ROCK SPRINGS-SWEETWATER CO, WY, United States (KRKS) 41-36N 109-03W
Apr 18, 2024 - 01:54 AM EDT / 2024.04.18 0554 UTC
Wind: from the ENE (060 degrees) at 21 MPH (18 KT) gusting to 28 MPH (24 KT):0
Visibility: 10 mile(s):0
Sky conditions: overcast
Temperature: 27.0 F (-2.8 C)
Windchill: 14 F (-10 C):1
Dew Point: 19.9 F (-6.7 C)
Relative Humidity: 74%
Pressure (altimeter): 30.17 in. Hg (1021 hPa)
Pressure tendency: 0.06 inches (2.1 hPa) higher than three hours ago
ob: KRKS 180554Z AUTO 06018G24KT 10SM FEW017 OVC070 M03/M07 A3017 RMK AO2 PK WND 06026/0500 SLP226 T10281067 10100 21028 51021
cycle: 6

Station Type Date Time Source
KRKS TAF 2024/04/18 06:58 UTC NOAA